メインページ
METAR-TAF:

METAR-TAF

空港 :

コンゴーニャス空港

サンパウロ, サンパウロ州, ブラジル

緯度: 23-37S, 経度: 046-39W, 海抜: 803m

現時点の気象観測

当レポートは29分前の06:21(UTC)に作成
の風 19kt
気温 15°C
湿度 88%
気圧 1018 hPa
視程10km以上
高度1000ftの雲は散在している
高度3900ftの千切れ雲あり
小雨

METAR: SBSP 200621Z AUTO 17019KT 9999 -RA SCT010 BKN039 15/13 Q1018

時間: 03:50 (06:50 UTC)

予報

当レポートは4時間43分前の02:07(UTC)に作成
予報は20日の 06時(UTC)から 21日の 06時(UTC)まで有効
南/南東の風 10kt
視程10km以上
高度1500ftの千切れ雲あり
確率 30%
20日の 07時(UTC)から 20日の 11時(UTC)まで
視程: 5000m
高度700ftの曇り
20日の 12時(UTC)から 20日の 14時(UTC)まで徐々に
高度2000ftの千切れ雲あり
20日の 16時(UTC)から 20日の 19時(UTC)まで一時的に
高度3000ftの雲は散在している
20日の 21時(UTC)から 20日の 23時(UTC)まで徐々に
東/南東の風 5kt
高度1200ftの雲は散在している

TAF: SBSP 200207Z 2006/2106 15010KT 9999 BKN015 TX19/2017Z TN14/2106Z PROB30 2007/2011 5000 BR OVC007 BECMG 2012/2014 BKN020 TEMPO 2016/2019 SCT030 BECMG 2021/2023 12005KT SCT012 RMK PGN

4,000以上の空港の気象観測と天気予報(METAR報とTAF報)

利用可能な観測所は地図上に黄色い丸と赤い丸で示す。

丸の上にカーソルを重ねると観測所名を参照できる。

次にクリックすると気象観測と天気予報を参照できる。

マップの切り替え:黒色「×」印の緑ボタンをクリックして拡大、「-」印の緑ボタンをクリックして縮小、緑色の三角印をクリックして隣りの地図に切り替え


METAR-TAF: